createdAt,value
2023-03-31T00:01:44.318Z,99836.75
2023-03-31T00:04:52.575Z,99827.94
2023-03-31T00:08:00.881Z,99829.66
2023-03-31T00:11:04.965Z,99812.97
2023-03-31T00:14:07.257Z,99799.44
2023-03-31T00:17:10.483Z,99806.81
2023-03-31T00:20:12.609Z,99799.50
2023-03-31T00:23:14.555Z,99785.50
2023-03-31T00:26:16.305Z,99776.81
2023-03-31T00:29:17.664Z,99772.28
2023-03-31T00:32:19.070Z,99765.22
2023-03-31T00:35:20.432Z,99766.00
2023-03-31T00:38:22.014Z,99766.63
2023-03-31T00:41:24.455Z,99759.69
2023-03-31T00:44:29.692Z,99770.50
2023-03-31T00:47:31.925Z,99773.09
2023-03-31T00:50:37.460Z,99770.97
2023-03-31T00:53:39.344Z,99744.38
2023-03-31T00:56:45.536Z,99740.81
2023-03-31T00:59:51.956Z,99740.25
2023-03-31T01:03:01.528Z,99732.25
2023-03-31T01:06:05.538Z,99724.56
2023-03-31T01:09:07.216Z,99721.75
2023-03-31T01:12:10.873Z,99714.25
2023-03-31T01:15:13.542Z,99715.31
2023-03-31T01:18:20.834Z,99705.66
2023-03-31T01:21:56.961Z,99704.06
2023-03-31T01:25:29.570Z,99716.41
2023-03-31T01:29:03.622Z,99732.53
2023-03-31T01:32:32.130Z,99716.25
2023-03-31T01:36:08.430Z,99706.53
2023-03-31T01:39:43.730Z,99699.88
2023-03-31T01:42:55.437Z,99698.47
2023-03-31T01:46:23.454Z,99682.06
2023-03-31T01:49:43.574Z,99670.63
2023-03-31T01:52:56.567Z,99670.47
2023-03-31T01:56:16.060Z,99653.69
2023-03-31T01:59:27.288Z,99647.31
2023-03-31T02:02:37.130Z,99645.09
2023-03-31T02:05:49.054Z,99651.25
2023-03-31T02:09:13.755Z,99636.81
2023-03-31T02:12:17.040Z,99642.72
2023-03-31T02:15:27.088Z,99639.28
2023-03-31T02:18:33.032Z,99641.84
2023-03-31T02:21:37.975Z,99635.63
2023-03-31T02:24:41.256Z,99628.97
2023-03-31T02:27:47.408Z,99626.50
2023-03-31T02:31:00.363Z,99606.34
2023-03-31T02:34:02.899Z,99593.22
2023-03-31T02:37:06.385Z,99579.25
2023-03-31T02:40:12.543Z,99577.69
2023-03-31T02:43:14.165Z,99580.97
2023-03-31T02:46:15.661Z,99569.22
2023-03-31T02:49:18.583Z,99556.22
2023-03-31T02:52:40.561Z,99551.25
2023-03-31T02:56:03.217Z,99537.44
2023-03-31T02:59:51.575Z,99525.94
2023-03-31T03:03:33.542Z,99514.63
2023-03-31T03:06:53.820Z,99498.84
2023-03-31T03:10:15.502Z,99486.50
2023-03-31T03:13:31.072Z,99463.66
2023-03-31T03:16:39.912Z,99471.41
2023-03-31T03:19:42.427Z,99477.66
2023-03-31T03:22:43.875Z,99460.41
2023-03-31T03:25:46.858Z,99452.38
2023-03-31T03:28:48.970Z,99437.38
2023-03-31T03:31:50.505Z,99432.03
2023-03-31T03:34:51.954Z,99433.81
2023-03-31T03:37:53.317Z,99429.56
2023-03-31T03:40:54.909Z,99416.25
2023-03-31T03:43:56.298Z,99412.53
2023-03-31T03:46:57.814Z,99390.63
2023-03-31T03:49:59.378Z,99359.50
2023-03-31T03:53:00.839Z,99343.66
2023-03-31T03:56:02.622Z,99350.84
2023-03-31T03:59:04.010Z,99346.97
2023-03-31T04:02:05.502Z,99353.31
2023-03-31T04:05:07.943Z,99363.94
2023-03-31T04:08:09.608Z,99368.22
2023-03-31T04:11:19.690Z,99372.13
2023-03-31T04:14:21.097Z,99379.28
2023-03-31T04:17:33.113Z,99368.78
2023-03-31T04:20:37.680Z,99353.72
2023-03-31T04:23:46.457Z,99346.13
2023-03-31T04:26:51.312Z,99339.84
2023-03-31T04:29:56.686Z,99332.16
2023-03-31T04:33:00.926Z,99324.59
2023-03-31T04:36:07.145Z,99313.09
2023-03-31T04:39:12.170Z,99314.78
2023-03-31T04:42:14.778Z,99300.03
2023-03-31T04:45:16.233Z,99300.13
2023-03-31T04:48:17.633Z,99299.81
2023-03-31T04:51:20.265Z,99305.16
2023-03-31T04:54:21.672Z,99304.22
2023-03-31T04:57:23.077Z,99304.94
2023-03-31T05:00:25.035Z,99315.50
2023-03-31T05:03:26.654Z,99306.59
2023-03-31T05:06:28.521Z,99303.28
2023-03-31T05:09:29.893Z,99293.59
2023-03-31T05:12:35.655Z,99311.41
2023-03-31T05:15:40.885Z,99313.53
2023-03-31T05:18:42.896Z,99318.97
2023-03-31T05:21:44.405Z,99325.72
2023-03-31T05:24:45.901Z,99306.00
2023-03-31T05:27:48.332Z,99302.97
2023-03-31T05:30:49.710Z,99301.03
2023-03-31T05:33:51.750Z,99286.88
2023-03-31T05:36:53.866Z,99258.97
2023-03-31T05:39:55.250Z,99262.38
2023-03-31T05:42:56.642Z,99250.53
2023-03-31T05:45:58.158Z,99241.75
2023-03-31T05:48:59.714Z,99233.25
2023-03-31T05:52:01.282Z,99230.19
2023-03-31T05:55:04.272Z,99213.44
2023-03-31T05:58:06.671Z,99209.44
2023-03-31T06:01:11.652Z,99206.88
2023-03-31T06:04:13.347Z,99193.75
2023-03-31T06:07:14.877Z,99196.50
2023-03-31T06:10:16.423Z,99186.38
2023-03-31T06:13:17.806Z,99179.84
2023-03-31T06:16:19.406Z,99168.50
2023-03-31T06:19:20.796Z,99170.38
2023-03-31T06:22:22.192Z,99172.84
2023-03-31T06:25:23.561Z,99180.84
2023-03-31T06:28:24.941Z,99160.41
2023-03-31T06:31:26.874Z,99155.00
2023-03-31T06:34:28.352Z,99134.56
2023-03-31T06:37:29.713Z,99102.34
2023-03-31T06:40:31.461Z,99075.69
2023-03-31T06:43:33.198Z,99094.59
2023-03-31T06:46:34.786Z,99111.94
2023-03-31T06:49:39.403Z,99130.66
2023-03-31T06:52:40.936Z,99132.44
2023-03-31T06:55:42.410Z,99118.75
2023-03-31T06:58:43.833Z,99116.13
2023-03-31T07:01:46.019Z,99129.97
2023-03-31T07:04:47.488Z,99120.94
2023-03-31T07:07:48.878Z,99138.06
2023-03-31T07:10:55.966Z,99124.25
2023-03-31T07:13:57.335Z,99099.44
2023-03-31T07:16:59.088Z,99116.84
2023-03-31T07:20:00.461Z,99112.06
2023-03-31T07:23:04.879Z,99114.22
2023-03-31T07:26:06.571Z,99109.47
2023-03-31T07:29:08.051Z,99111.09
2023-03-31T07:32:09.475Z,99118.66
2023-03-31T07:35:11.585Z,99117.16
2023-03-31T07:38:13.780Z,99121.16
2023-03-31T07:41:19.924Z,99123.31
2023-03-31T07:44:23.307Z,99128.34
2023-03-31T07:47:25.331Z,99121.00
2023-03-31T07:50:26.780Z,99117.59
2023-03-31T07:53:30.804Z,99121.00
2023-03-31T07:56:32.198Z,99131.38
2023-03-31T07:59:33.766Z,99140.44
2023-03-31T08:02:36.249Z,99144.44
2023-03-31T08:05:37.892Z,99125.59
2023-03-31T08:08:43.026Z,99127.38
2023-03-31T08:11:46.805Z,99126.47
2023-03-31T08:14:49.068Z,99118.91
2023-03-31T08:17:50.585Z,99114.03
2023-03-31T08:20:52.207Z,99117.75
2023-03-31T08:23:55.330Z,99100.19
2023-03-31T08:26:57.033Z,99105.19
2023-03-31T08:29:58.471Z,99098.44
2023-03-31T08:32:59.907Z,99110.03
2023-03-31T08:36:07.831Z,99095.72
2023-03-31T08:39:09.556Z,99084.00
2023-03-31T08:42:22.493Z,99083.84
2023-03-31T08:45:29.703Z,99075.81
2023-03-31T08:48:45.192Z,99075.84
2023-03-31T08:51:59.085Z,99084.56
2023-03-31T08:55:06.644Z,99092.28
2023-03-31T08:58:43.497Z,99082.25
2023-03-31T09:01:56.844Z,99076.28
2023-03-31T09:05:17.439Z,99085.19
2023-03-31T09:08:34.033Z,99069.44
2023-03-31T09:11:39.893Z,99068.41
2023-03-31T09:14:54.002Z,99075.66
2023-03-31T09:17:59.231Z,99068.63
2023-03-31T09:21:25.830Z,99075.63
2023-03-31T09:24:43.466Z,99050.41
2023-03-31T09:27:46.784Z,99043.41
2023-03-31T09:30:52.086Z,99046.59
2023-03-31T09:33:59.631Z,99039.16
2023-03-31T09:37:01.197Z,99036.84
2023-03-31T09:40:10.350Z,99031.88
2023-03-31T09:43:24.313Z,99027.09
2023-03-31T09:46:35.578Z,99019.00
2023-03-31T09:49:37.906Z,99017.34
2023-03-31T09:53:00.683Z,99014.03
2023-03-31T09:56:04.765Z,99015.41
2023-03-31T09:59:06.518Z,99000.94
2023-03-31T10:02:21.608Z,98997.72
2023-03-31T10:05:37.557Z,99008.41
2023-03-31T10:08:47.617Z,98998.19
2023-03-31T10:12:02.903Z,99014.19
2023-03-31T10:15:19.528Z,99021.34
2023-03-31T10:18:32.026Z,99012.25
2023-03-31T10:21:36.733Z,99008.56
2023-03-31T10:24:48.561Z,99005.91
2023-03-31T10:27:54.213Z,99005.06
2023-03-31T10:31:01.182Z,98989.97
2023-03-31T10:34:16.872Z,98984.44
2023-03-31T10:37:22.456Z,98967.84
2023-03-31T10:40:26.878Z,98969.53
2023-03-31T10:43:41.545Z,99057.09
2023-03-31T10:46:50.265Z,99069.56
2023-03-31T10:49:57.412Z,99073.63
2023-03-31T10:53:20.434Z,99029.94
2023-03-31T10:56:37.285Z,99043.03
2023-03-31T10:59:59.439Z,99037.38
2023-03-31T11:03:32.889Z,99018.69
2023-03-31T11:07:01.632Z,99017.19
2023-03-31T11:10:24.347Z,99021.34
2023-03-31T11:13:33.497Z,99010.13
2023-03-31T11:17:01.798Z,99020.97
2023-03-31T11:20:27.513Z,99021.56
2023-03-31T11:23:46.959Z,99027.59
2023-03-31T11:27:14.534Z,99021.78
2023-03-31T11:30:28.434Z,99018.22
2023-03-31T11:33:35.483Z,99019.78
2023-03-31T11:37:19.476Z,99019.50
2023-03-31T11:40:32.724Z,99018.38
2023-03-31T11:43:41.506Z,99021.16
2023-03-31T11:47:01.629Z,99026.25
2023-03-31T11:50:27.378Z,99042.75
2023-03-31T11:53:35.956Z,99030.25
2023-03-31T11:56:40.615Z,99015.66
2023-03-31T11:59:43.653Z,99017.13
2023-03-31T12:03:03.172Z,99008.00
2023-03-31T12:06:17.187Z,99017.34
2023-03-31T12:09:30.429Z,99001.00
2023-03-31T12:12:57.189Z,98993.72
2023-03-31T12:16:20.516Z,98999.34
2023-03-31T12:19:34.266Z,98988.75
2023-03-31T12:22:41.871Z,98987.88
2023-03-31T12:26:08.122Z,98994.03
2023-03-31T12:29:29.440Z,98994.44
2023-03-31T12:32:34.706Z,98987.03
2023-03-31T12:35:57.387Z,98981.19
2023-03-31T12:39:18.002Z,98982.13
2023-03-31T12:42:44.552Z,98974.38
2023-03-31T12:46:01.206Z,98953.94
2023-03-31T12:49:20.784Z,98962.41
2023-03-31T12:52:36.615Z,98950.78
2023-03-31T12:55:55.226Z,98948.03
2023-03-31T12:59:33.625Z,98961.41
2023-03-31T13:02:35.194Z,98961.19
2023-03-31T13:05:39.497Z,98969.75
2023-03-31T13:08:50.396Z,98991.13
2023-03-31T13:11:51.851Z,98976.31
2023-03-31T13:14:59.802Z,98978.47
2023-03-31T13:18:04.890Z,98987.13
2023-03-31T13:21:07.895Z,98971.06
2023-03-31T13:24:09.381Z,98958.78
2023-03-31T13:27:50.110Z,98965.84
2023-03-31T13:31:02.324Z,98961.69
2023-03-31T13:34:03.783Z,98948.44
2023-03-31T13:37:28.360Z,98962.59
2023-03-31T13:40:48.497Z,98934.47
2023-03-31T13:44:23.896Z,98940.19
2023-03-31T13:48:03.864Z,98931.13
2023-03-31T13:51:34.839Z,98932.38
2023-03-31T13:55:02.427Z,98938.00
2023-03-31T13:58:37.640Z,98926.78
2023-03-31T14:01:47.831Z,98935.09
2023-03-31T14:05:25.571Z,98916.63
2023-03-31T14:08:45.650Z,98899.28
2023-03-31T14:11:47.195Z,98885.59
2023-03-31T14:14:53.125Z,98878.25
2023-03-31T14:17:55.295Z,98868.06
2023-03-31T14:21:29.204Z,98865.31
2023-03-31T14:24:43.340Z,98874.06
2023-03-31T14:27:47.357Z,98877.91
2023-03-31T14:31:10.845Z,98888.81
2023-03-31T14:34:30.717Z,98886.31
2023-03-31T14:37:33.977Z,98886.78
2023-03-31T14:40:44.981Z,98895.38
2023-03-31T14:43:51.408Z,98919.63
2023-03-31T14:46:56.992Z,98908.75
2023-03-31T14:50:01.216Z,98875.63
2023-03-31T14:53:04.621Z,98870.53
2023-03-31T14:56:09.436Z,98864.63
2023-03-31T14:59:11.269Z,98881.34
2023-03-31T15:02:31.230Z,98886.88
2023-03-31T15:05:36.315Z,98882.09
2023-03-31T15:08:38.614Z,98880.28
2023-03-31T15:11:40.115Z,98884.31
2023-03-31T15:15:04.275Z,98872.16
2023-03-31T15:18:05.816Z,98885.56
2023-03-31T15:21:16.501Z,98884.53
2023-03-31T15:24:18.297Z,98895.56
2023-03-31T15:27:42.556Z,98899.44
2023-03-31T15:30:47.662Z,98901.16
2023-03-31T15:33:49.378Z,98907.91
2023-03-31T15:36:54.691Z,98911.84
2023-03-31T15:39:59.743Z,98905.25
2023-03-31T15:43:24.323Z,98901.25
2023-03-31T15:46:39.389Z,98906.13
2023-03-31T15:49:57.174Z,98904.41
2023-03-31T15:52:58.675Z,98896.59
2023-03-31T15:56:00.442Z,98888.25
2023-03-31T15:59:21.269Z,98892.69
2023-03-31T16:02:26.297Z,98885.34
2023-03-31T16:05:58.185Z,98892.44
2023-03-31T16:09:05.925Z,98896.50
2023-03-31T16:12:15.581Z,98906.13
2023-03-31T16:15:23.806Z,98910.97
2023-03-31T16:18:35.873Z,98913.47
2023-03-31T16:21:44.471Z,98913.88
2023-03-31T16:24:46.230Z,98910.69
2023-03-31T16:27:56.233Z,98908.38
2023-03-31T16:31:01.658Z,98899.28
2023-03-31T16:34:08.715Z,98897.91
2023-03-31T16:37:11.512Z,98894.19
2023-03-31T16:40:13.354Z,98898.63
2023-03-31T16:43:16.821Z,98903.94
2023-03-31T16:46:18.512Z,98912.59
2023-03-31T16:49:19.893Z,98923.81
2023-03-31T16:52:21.301Z,98939.25
2023-03-31T16:55:22.736Z,98939.84
2023-03-31T16:58:24.924Z,98927.56
2023-03-31T17:01:26.389Z,98931.34
2023-03-31T17:04:28.083Z,98946.78
2023-03-31T17:07:30.237Z,98951.63
2023-03-31T17:10:31.617Z,98960.34
2023-03-31T17:13:33.681Z,98952.06
2023-03-31T17:16:47.283Z,98947.16
2023-03-31T17:19:50.536Z,98943.09
2023-03-31T17:22:52.873Z,98936.44
2023-03-31T17:25:54.246Z,98965.88
2023-03-31T17:28:56.229Z,98958.53
2023-03-31T17:31:57.812Z,98964.66
2023-03-31T17:34:59.506Z,98968.34
2023-03-31T17:38:00.944Z,98959.03
2023-03-31T17:41:04.374Z,98976.34
2023-03-31T17:44:07.748Z,98980.97
2023-03-31T17:47:09.548Z,98980.53
2023-03-31T17:50:11.610Z,98980.81
2023-03-31T17:53:13.263Z,98978.09
2023-03-31T17:56:16.376Z,98981.41
2023-03-31T17:59:19.034Z,98978.97
2023-03-31T18:02:20.716Z,98985.09
2023-03-31T18:05:22.170Z,98992.44
2023-03-31T18:08:23.791Z,99001.00
2023-03-31T18:11:26.673Z,98998.66
2023-03-31T18:14:28.501Z,99003.16
2023-03-31T18:17:31.222Z,99001.25
2023-03-31T18:20:33.483Z,99001.00
2023-03-31T18:23:36.390Z,98999.00
2023-03-31T18:26:37.745Z,99005.50
2023-03-31T18:29:39.712Z,99005.94
2023-03-31T18:32:41.164Z,99000.50
2023-03-31T18:35:42.748Z,99001.72
2023-03-31T18:38:45.498Z,99015.38
2023-03-31T18:41:48.467Z,99001.59
2023-03-31T18:44:49.848Z,99000.81
2023-03-31T18:47:51.372Z,99010.84
2023-03-31T18:50:53.546Z,99021.56
2023-03-31T18:53:55.033Z,99025.63
2023-03-31T18:56:56.770Z,99017.63
2023-03-31T18:59:58.161Z,99009.31
2023-03-31T19:02:59.674Z,99005.34
2023-03-31T19:06:09.852Z,99001.84
2023-03-31T19:09:11.515Z,99020.22
2023-03-31T19:12:12.869Z,99018.91
2023-03-31T19:15:15.764Z,99008.44
2023-03-31T19:18:17.133Z,99001.94
2023-03-31T19:21:19.387Z,99017.00
2023-03-31T19:24:20.758Z,99018.88
2023-03-31T19:27:22.989Z,99019.03
2023-03-31T19:30:25.041Z,99020.47
2023-03-31T19:33:26.970Z,99018.03
2023-03-31T19:36:28.577Z,99016.06
2023-03-31T19:39:29.962Z,99023.81
2023-03-31T19:42:33.144Z,99012.91
2023-03-31T19:45:36.955Z,99019.69
2023-03-31T19:48:38.398Z,99023.56
2023-03-31T19:51:39.771Z,99031.19
2023-03-31T19:54:41.156Z,99029.38
2023-03-31T19:57:42.538Z,99028.72
2023-03-31T20:00:43.920Z,99023.44
2023-03-31T20:03:46.016Z,99033.03
2023-03-31T20:06:49.561Z,99013.06
2023-03-31T20:09:51.038Z,99002.59
2023-03-31T20:12:52.497Z,99010.00
2023-03-31T20:16:05.990Z,99020.94
2023-03-31T20:19:07.808Z,99011.41
2023-03-31T20:22:09.177Z,99011.84
2023-03-31T20:25:10.544Z,99021.78
2023-03-31T20:28:11.947Z,99023.00
2023-03-31T20:31:22.234Z,99019.44
2023-03-31T20:34:24.024Z,99006.16
2023-03-31T20:37:25.533Z,99014.22
2023-03-31T20:40:27.700Z,99025.72
2023-03-31T20:43:29.309Z,99016.19
2023-03-31T20:46:30.820Z,99019.44
2023-03-31T20:49:32.266Z,99017.72
2023-03-31T20:52:33.642Z,99024.03
2023-03-31T20:55:35.095Z,99024.03
2023-03-31T20:58:37.266Z,99027.53
2023-03-31T21:01:39.846Z,99015.00
2023-03-31T21:04:41.376Z,99026.31
2023-03-31T21:07:42.789Z,99028.09
2023-03-31T21:10:45.739Z,99017.56
2023-03-31T21:13:48.612Z,99023.06
2023-03-31T21:16:50.047Z,99027.59
2023-03-31T21:19:51.469Z,99023.84
2023-03-31T21:22:53.121Z,99029.47
2023-03-31T21:25:57.916Z,99021.75
2023-03-31T21:28:59.332Z,99031.50
2023-03-31T21:32:02.050Z,99033.47
2023-03-31T21:35:03.675Z,99032.53
2023-03-31T21:38:05.091Z,99031.50
2023-03-31T21:41:07.699Z,99021.28
2023-03-31T21:44:09.852Z,99017.53
2023-03-31T21:47:12.059Z,99030.53
2023-03-31T21:50:13.511Z,99019.81
2023-03-31T21:53:14.930Z,99026.69
2023-03-31T21:56:16.486Z,99028.88
2023-03-31T21:59:17.940Z,99021.41
2023-03-31T22:02:19.320Z,99027.03
2023-03-31T22:05:21.098Z,99031.31
2023-03-31T22:08:22.805Z,99036.56
2023-03-31T22:11:24.285Z,99047.47
2023-03-31T22:14:25.839Z,99042.38
2023-03-31T22:17:28.347Z,99043.47
2023-03-31T22:20:29.733Z,99047.47
2023-03-31T22:23:32.455Z,99045.75
2023-03-31T22:26:33.842Z,99050.78
2023-03-31T22:29:35.477Z,99059.63
2023-03-31T22:32:36.876Z,99059.47
2023-03-31T22:35:38.510Z,99053.94
2023-03-31T22:38:40.258Z,99050.63
2023-03-31T22:41:42.806Z,99057.34
2023-03-31T22:44:44.242Z,99064.50
2023-03-31T22:47:46.005Z,99059.72
2023-03-31T22:50:47.443Z,99063.47
2023-03-31T22:53:50.997Z,99069.69
2023-03-31T22:56:52.941Z,99065.34
2023-03-31T22:59:54.340Z,99066.34
2023-03-31T23:02:55.774Z,99065.75
2023-03-31T23:05:57.163Z,99062.97
2023-03-31T23:08:58.534Z,99055.13
2023-03-31T23:11:59.996Z,99056.16
2023-03-31T23:15:01.909Z,99055.91
2023-03-31T23:18:03.720Z,99050.22
2023-03-31T23:21:06.614Z,99059.47
2023-03-31T23:24:08.012Z,99053.28
2023-03-31T23:27:09.562Z,99053.44
2023-03-31T23:30:11.518Z,99055.81
2023-03-31T23:33:12.930Z,99055.13
2023-03-31T23:36:21.182Z,99060.41
2023-03-31T23:39:22.761Z,99045.19
2023-03-31T23:42:24.179Z,99043.41
2023-03-31T23:45:25.547Z,99043.41
2023-03-31T23:48:26.948Z,99042.72
2023-03-31T23:51:28.351Z,99041.75
2023-03-31T23:54:30.053Z,99042.97
2023-03-31T23:57:31.544Z,99041.88
